createdAt,value
2019-05-30T00:00:30.655Z,1020.38
2019-05-30T00:01:30.651Z,1020.39
2019-05-30T00:02:30.661Z,1020.34
2019-05-30T00:03:30.655Z,1020.38
2019-05-30T00:04:30.621Z,1020.34
2019-05-30T00:05:30.602Z,1020.39
2019-05-30T00:06:30.602Z,1020.41
2019-05-30T00:07:30.614Z,1020.44
2019-05-30T00:08:30.575Z,1020.45
2019-05-30T00:09:30.565Z,1020.51
2019-05-30T00:10:30.553Z,1020.44
2019-05-30T00:11:30.546Z,1020.47
2019-05-30T00:12:30.545Z,1020.50
2019-05-30T00:13:30.521Z,1020.51
2019-05-30T00:14:30.515Z,1020.49
2019-05-30T00:15:30.509Z,1020.49
2019-05-30T00:16:30.489Z,1020.49
2019-05-30T00:17:30.496Z,1020.58
2019-05-30T00:18:30.482Z,1020.54
2019-05-30T00:19:33.764Z,1020.59
2019-05-30T00:20:30.449Z,1020.55
2019-05-30T00:21:30.439Z,1020.60
2019-05-30T00:22:30.443Z,1020.62
2019-05-30T00:23:30.425Z,1020.64
2019-05-30T00:24:30.401Z,1020.61
2019-05-30T00:25:30.403Z,1020.62
2019-05-30T00:26:30.411Z,1020.61
2019-05-30T00:27:30.392Z,1020.59
2019-05-30T00:28:30.365Z,1020.62
2019-05-30T00:29:30.357Z,1020.60
2019-05-30T00:30:30.340Z,1020.66
2019-05-30T00:31:30.328Z,1020.58
2019-05-30T00:32:30.335Z,1020.61
2019-05-30T00:33:30.311Z,1020.55
2019-05-30T00:34:30.305Z,1020.58
2019-05-30T00:35:30.288Z,1020.55
2019-05-30T00:36:30.294Z,1020.59
2019-05-30T00:37:30.286Z,1020.56
2019-05-30T00:38:30.280Z,1020.63
2019-05-30T00:39:30.245Z,1020.59
2019-05-30T00:40:30.236Z,1020.54
2019-05-30T00:41:30.229Z,1020.56
2019-05-30T00:42:30.228Z,1020.57
2019-05-30T00:43:30.202Z,1020.59
2019-05-30T00:44:30.192Z,1020.53
2019-05-30T00:45:30.188Z,1020.51
2019-05-30T00:46:30.172Z,1020.53
2019-05-30T00:47:30.177Z,1020.53
2019-05-30T00:48:30.152Z,1020.52
2019-05-30T00:49:30.156Z,1020.51
2019-05-30T00:50:30.129Z,1020.54
2019-05-30T00:51:30.124Z,1020.53
2019-05-30T00:52:30.133Z,1020.53
2019-05-30T00:53:30.101Z,1020.53
2019-05-30T00:54:30.089Z,1020.57
2019-05-30T00:55:30.086Z,1020.55
2019-05-30T00:56:30.069Z,1020.57
2019-05-30T00:57:30.073Z,1020.58
2019-05-30T00:58:30.053Z,1020.60
2019-05-30T00:59:30.039Z,1020.59
2019-05-30T01:00:42.913Z,1020.60
2019-05-30T01:01:31.017Z,1020.57
2019-05-30T01:02:30.033Z,1020.53
2019-05-30T01:03:29.995Z,1020.54
2019-05-30T01:04:29.984Z,1020.60
2019-05-30T01:05:29.968Z,1020.50
2019-05-30T01:06:29.966Z,1020.52
2019-05-30T01:07:29.970Z,1020.52
2019-05-30T01:08:29.940Z,1020.51
2019-05-30T01:09:29.935Z,1020.54
2019-05-30T01:10:29.917Z,1020.55
2019-05-30T01:11:29.909Z,1020.52
2019-05-30T01:12:29.915Z,1020.53
2019-05-30T01:13:29.894Z,1020.49
2019-05-30T01:14:29.883Z,1020.53
2019-05-30T01:15:29.870Z,1020.53
2019-05-30T01:16:29.858Z,1020.52
2019-05-30T01:17:29.862Z,1020.52
2019-05-30T01:18:29.835Z,1020.51
2019-05-30T01:19:29.827Z,1020.51
2019-05-30T01:20:29.823Z,1020.53
2019-05-30T01:21:29.810Z,1020.54
2019-05-30T01:22:29.810Z,1020.49
2019-05-30T01:23:29.787Z,1020.54
2019-05-30T01:24:29.782Z,1020.51
2019-05-30T01:25:29.762Z,1020.51
2019-05-30T01:26:29.754Z,1020.47
2019-05-30T01:27:29.756Z,1020.51
2019-05-30T01:28:29.733Z,1020.52
2019-05-30T01:29:29.718Z,1020.52
2019-05-30T01:30:29.712Z,1020.49
2019-05-30T01:31:29.702Z,1020.51
2019-05-30T01:32:29.741Z,1020.53
2019-05-30T01:33:29.684Z,1020.46
2019-05-30T01:34:29.663Z,1020.45
2019-05-30T01:35:29.741Z,1020.52
2019-05-30T01:36:29.653Z,1020.50
2019-05-30T01:37:29.664Z,1020.57
2019-05-30T01:38:29.629Z,1020.52
2019-05-30T01:39:29.617Z,1020.53
2019-05-30T01:40:29.605Z,1020.53
2019-05-30T01:41:29.600Z,1020.52
2019-05-30T01:42:29.591Z,1020.52
2019-05-30T01:43:29.585Z,1020.51
2019-05-30T01:44:29.559Z,1020.49
2019-05-30T01:45:29.554Z,1020.48
2019-05-30T01:46:29.646Z,1020.42
2019-05-30T01:47:29.537Z,1020.44
2019-05-30T01:48:29.531Z,1020.48
2019-05-30T01:49:29.521Z,1020.47
2019-05-30T01:50:29.502Z,1020.47
2019-05-30T01:51:29.511Z,1020.52
2019-05-30T01:52:29.486Z,1020.51
2019-05-30T01:53:29.491Z,1020.51
2019-05-30T01:54:29.455Z,1020.49
2019-05-30T01:55:29.447Z,1020.48
2019-05-30T01:56:29.438Z,1020.46
2019-05-30T01:57:29.423Z,1020.50
2019-05-30T01:58:29.414Z,1020.46
2019-05-30T01:59:29.421Z,1020.51
2019-05-30T02:00:29.427Z,1020.47
2019-05-30T02:01:29.395Z,1020.50
2019-05-30T02:02:29.384Z,1020.45
2019-05-30T02:03:29.363Z,1020.46
2019-05-30T02:04:29.372Z,1020.46
2019-05-30T02:05:29.337Z,1020.48
2019-05-30T02:06:29.329Z,1020.47
2019-05-30T02:07:29.318Z,1020.46
2019-05-30T02:08:29.311Z,1020.47
2019-05-30T02:09:29.306Z,1020.47
2019-05-30T02:10:29.300Z,1020.43
2019-05-30T02:11:29.272Z,1020.42
2019-05-30T02:12:29.267Z,1020.43
2019-05-30T02:13:29.262Z,1020.38
2019-05-30T02:14:29.246Z,1020.33
2019-05-30T02:15:29.249Z,1020.38
2019-05-30T02:16:29.228Z,1020.37
2019-05-30T02:17:29.212Z,1020.35
2019-05-30T02:18:29.205Z,1020.36
2019-05-30T02:19:29.199Z,1020.32
2019-05-30T02:20:29.192Z,1020.35
2019-05-30T02:21:29.169Z,1020.37
2019-05-30T02:22:29.158Z,1020.38
2019-05-30T02:23:29.153Z,1020.38
2019-05-30T02:24:29.144Z,1020.44
2019-05-30T02:25:29.141Z,1020.47
2019-05-30T02:26:29.118Z,1020.47
2019-05-30T02:27:29.119Z,1020.45
2019-05-30T02:28:29.108Z,1020.43
2019-05-30T02:29:29.089Z,1020.46
2019-05-30T02:30:29.111Z,1020.50
2019-05-30T02:31:38.997Z,1020.49
2019-05-30T02:32:30.053Z,1020.49
2019-05-30T02:33:29.043Z,1020.46
2019-05-30T02:34:29.027Z,1020.45
2019-05-30T02:35:29.036Z,1020.47
2019-05-30T02:36:29.032Z,1020.44
2019-05-30T02:37:29.002Z,1020.49
2019-05-30T02:38:28.995Z,1020.47
2019-05-30T02:39:28.979Z,1020.44
2019-05-30T02:40:28.989Z,1020.47
2019-05-30T02:41:28.957Z,1020.49
2019-05-30T02:42:28.947Z,1020.48
2019-05-30T02:43:28.964Z,1020.50
2019-05-30T02:44:28.926Z,1020.54
2019-05-30T02:45:28.932Z,1020.54
2019-05-30T02:46:28.907Z,1020.54
2019-05-30T02:47:28.893Z,1020.56
2019-05-30T02:48:28.883Z,1020.56
2019-05-30T02:49:28.883Z,1020.61
2019-05-30T02:50:28.879Z,1020.59
2019-05-30T02:51:28.858Z,1020.61
2019-05-30T02:52:28.851Z,1020.63
2019-05-30T02:53:28.831Z,1020.62
2019-05-30T02:54:28.819Z,1020.64
2019-05-30T02:55:28.852Z,1020.66
2019-05-30T02:56:28.800Z,1020.72
2019-05-30T02:57:28.827Z,1020.74
2019-05-30T02:58:28.782Z,1020.74
2019-05-30T02:59:28.779Z,1020.73
2019-05-30T03:00:28.793Z,1020.71
2019-05-30T03:01:28.797Z,1020.70
2019-05-30T03:02:28.753Z,1020.73
2019-05-30T03:03:28.739Z,1020.73
2019-05-30T03:04:28.713Z,1020.73
2019-05-30T03:05:28.708Z,1020.72
2019-05-30T03:06:28.711Z,1020.74
2019-05-30T03:07:28.686Z,1020.77
2019-05-30T03:08:28.679Z,1020.76
2019-05-30T03:09:28.666Z,1020.72
2019-05-30T03:10:28.656Z,1020.72
2019-05-30T03:11:28.655Z,1020.68
2019-05-30T03:12:28.631Z,1020.70
2019-05-30T03:13:28.619Z,1020.72
2019-05-30T03:14:28.610Z,1020.72
2019-05-30T03:15:28.596Z,1020.78
2019-05-30T03:16:28.616Z,1020.80
2019-05-30T03:17:28.577Z,1020.77
2019-05-30T03:18:28.561Z,1020.81
2019-05-30T03:19:28.559Z,1020.84
2019-05-30T03:20:28.541Z,1020.84
2019-05-30T03:21:28.568Z,1020.87
2019-05-30T03:22:28.522Z,1020.89
2019-05-30T03:23:28.533Z,1020.86
2019-05-30T03:24:28.502Z,1020.88
2019-05-30T03:25:28.491Z,1020.87
2019-05-30T03:26:28.506Z,1020.88
2019-05-30T03:27:28.467Z,1020.89
2019-05-30T03:28:28.454Z,1020.83
2019-05-30T03:29:28.448Z,1020.85
2019-05-30T03:30:29.929Z,1020.85
2019-05-30T03:31:29.915Z,1020.89
2019-05-30T03:33:02.071Z,1020.85
2019-05-30T03:33:39.053Z,1020.82
2019-05-30T03:34:29.743Z,1020.83
2019-05-30T03:35:32.768Z,1020.81
2019-05-30T03:36:31.718Z,1020.84
2019-05-30T03:37:30.288Z,1020.84
2019-05-30T03:38:28.360Z,1020.83
2019-05-30T03:39:28.343Z,1020.88
2019-05-30T03:40:30.275Z,1020.89
2019-05-30T03:41:28.342Z,1020.86
2019-05-30T03:42:28.310Z,1020.87
2019-05-30T03:43:28.318Z,1020.86
2019-05-30T03:44:28.295Z,1020.89
2019-05-30T03:45:28.283Z,1020.91
2019-05-30T03:46:28.284Z,1020.87
2019-05-30T03:47:28.266Z,1020.91
2019-05-30T03:48:28.247Z,1020.89
2019-05-30T03:49:28.911Z,1020.90
2019-05-30T03:50:28.226Z,1020.91
2019-05-30T03:51:28.250Z,1020.90
2019-05-30T03:52:28.205Z,1020.89
2019-05-30T03:53:28.191Z,1020.92
2019-05-30T03:54:28.183Z,1020.91
2019-05-30T03:55:28.176Z,1020.95
2019-05-30T03:56:28.165Z,1020.94
2019-05-30T03:57:28.167Z,1020.94
2019-05-30T03:58:28.143Z,1020.87
2019-05-30T03:59:28.144Z,1020.87
2019-05-30T04:00:28.921Z,1020.89
2019-05-30T04:01:28.113Z,1020.88
2019-05-30T04:02:28.158Z,1020.90
2019-05-30T04:03:28.088Z,1020.91
2019-05-30T04:04:28.080Z,1020.88
2019-05-30T04:05:28.065Z,1020.89
2019-05-30T04:06:28.053Z,1020.89
2019-05-30T04:07:28.059Z,1020.89
2019-05-30T04:08:28.030Z,1020.90
2019-05-30T04:09:28.035Z,1020.89
2019-05-30T04:10:28.019Z,1020.89
2019-05-30T04:11:28.008Z,1020.91
2019-05-30T04:12:28.004Z,1020.90
2019-05-30T04:13:27.984Z,1020.91
2019-05-30T04:14:27.983Z,1020.94
2019-05-30T04:15:27.959Z,1020.93
2019-05-30T04:16:27.955Z,1020.93
2019-05-30T04:17:27.954Z,1020.90
2019-05-30T04:18:27.928Z,1020.95
2019-05-30T04:19:27.941Z,1020.90
2019-05-30T04:20:27.906Z,1020.91
2019-05-30T04:21:27.911Z,1020.89
2019-05-30T04:22:27.900Z,1020.90
2019-05-30T04:23:27.886Z,1020.90
2019-05-30T04:24:27.879Z,1020.91
2019-05-30T04:25:27.857Z,1020.90
2019-05-30T04:26:27.900Z,1020.88
2019-05-30T04:27:27.857Z,1020.89
2019-05-30T04:28:27.830Z,1020.88
2019-05-30T04:29:27.811Z,1020.95
2019-05-30T04:30:27.802Z,1020.92
2019-05-30T04:31:27.796Z,1020.97
2019-05-30T04:32:27.790Z,1020.95
2019-05-30T04:33:32.969Z,1020.94
2019-05-30T04:34:28.761Z,1020.94
2019-05-30T04:35:27.761Z,1020.92
2019-05-30T04:36:27.743Z,1020.94
2019-05-30T04:37:27.727Z,1020.95
2019-05-30T04:38:27.727Z,1020.98
2019-05-30T04:39:27.728Z,1020.94
2019-05-30T04:40:27.693Z,1020.93
2019-05-30T04:41:27.686Z,1020.97
2019-05-30T04:42:27.676Z,1020.98
2019-05-30T04:43:27.810Z,1020.97
2019-05-30T04:44:27.673Z,1020.92
2019-05-30T04:45:28.561Z,1020.95
2019-05-30T04:46:27.639Z,1020.91
2019-05-30T04:47:27.619Z,1020.96
2019-05-30T04:48:27.626Z,1020.92
2019-05-30T04:49:27.606Z,1020.95
2019-05-30T04:50:27.590Z,1020.95
2019-05-30T04:51:27.579Z,1020.91
2019-05-30T04:52:27.570Z,1020.94
2019-05-30T04:53:27.578Z,1020.95
2019-05-30T04:54:27.545Z,1020.96
2019-05-30T04:55:27.540Z,1020.93
2019-05-30T04:56:27.525Z,1020.98
2019-05-30T04:57:27.523Z,1020.96
2019-05-30T04:58:27.531Z,1020.99
2019-05-30T04:59:27.499Z,1020.96
2019-05-30T05:00:27.497Z,1020.99
2019-05-30T05:01:27.481Z,1020.94
2019-05-30T05:02:27.468Z,1020.98
2019-05-30T05:03:44.038Z,1020.96
2019-05-30T05:04:28.455Z,1020.98
2019-05-30T05:05:27.434Z,1020.93
2019-05-30T05:06:27.422Z,1020.98
2019-05-30T05:07:28.393Z,1021.01
2019-05-30T05:08:27.418Z,1020.99
2019-05-30T05:09:27.398Z,1021.00
2019-05-30T05:10:27.390Z,1020.96
2019-05-30T05:11:27.372Z,1020.97
2019-05-30T05:12:27.361Z,1020.94
2019-05-30T05:13:27.360Z,1020.98
2019-05-30T05:14:27.334Z,1020.99
2019-05-30T05:15:27.325Z,1020.96
2019-05-30T05:16:35.365Z,1020.94
2019-05-30T05:17:28.312Z,1020.97
2019-05-30T05:18:27.309Z,1020.95
2019-05-30T05:19:27.284Z,1020.92
2019-05-30T05:20:27.275Z,1020.92
2019-05-30T05:21:27.262Z,1020.93
2019-05-30T05:22:27.252Z,1020.91
2019-05-30T05:23:27.252Z,1020.89
2019-05-30T05:24:27.230Z,1020.94
2019-05-30T05:25:27.217Z,1020.98
2019-05-30T05:26:27.209Z,1020.90
2019-05-30T05:27:27.200Z,1020.94
2019-05-30T05:28:27.204Z,1020.96
2019-05-30T05:29:27.176Z,1020.88
2019-05-30T05:30:27.166Z,1020.87
2019-05-30T05:31:27.157Z,1020.91
2019-05-30T05:32:27.143Z,1020.93
2019-05-30T05:33:27.145Z,1020.87
2019-05-30T05:34:27.119Z,1020.90
2019-05-30T05:35:27.111Z,1020.92
2019-05-30T05:36:27.116Z,1020.88
2019-05-30T05:37:27.406Z,1020.91
2019-05-30T05:38:28.418Z,1020.91
2019-05-30T05:39:27.073Z,1020.91
2019-05-30T05:40:27.062Z,1020.96
2019-05-30T05:41:28.472Z,1020.98
2019-05-30T05:42:29.108Z,1020.92
2019-05-30T05:43:27.030Z,1020.96
2019-05-30T05:44:27.046Z,1020.88
2019-05-30T05:45:27.005Z,1020.89
2019-05-30T05:46:26.990Z,1020.98
2019-05-30T05:47:26.990Z,1021.00
2019-05-30T05:48:26.990Z,1021.02
2019-05-30T05:49:26.983Z,1020.96
2019-05-30T05:50:26.952Z,1020.96
2019-05-30T05:51:26.952Z,1021.00
2019-05-30T05:52:26.933Z,1020.95
2019-05-30T05:53:26.929Z,1021.04
2019-05-30T05:54:26.927Z,1020.96
2019-05-30T05:55:26.906Z,1020.95
2019-05-30T05:56:26.896Z,1020.92
2019-05-30T05:57:26.882Z,1020.90
2019-05-30T05:58:26.876Z,1020.89
2019-05-30T05:59:26.878Z,1020.84
2019-05-30T06:00:26.853Z,1020.91
2019-05-30T06:01:26.967Z,1020.90
2019-05-30T06:02:27.238Z,1020.94
2019-05-30T06:03:26.922Z,1020.89
2019-05-30T06:04:27.363Z,1020.87
2019-05-30T06:05:26.841Z,1020.87
2019-05-30T06:06:27.376Z,1020.91
2019-05-30T06:07:26.834Z,1020.89
2019-05-30T06:08:27.710Z,1020.91
2019-05-30T06:09:26.841Z,1020.89
2019-05-30T06:10:27.974Z,1020.82
2019-05-30T06:11:26.842Z,1020.87
2019-05-30T06:12:27.917Z,1020.86
2019-05-30T06:13:27.554Z,1020.89
2019-05-30T06:14:28.130Z,1020.90
2019-05-30T06:15:26.756Z,1020.95
2019-05-30T06:16:26.706Z,1020.93
2019-05-30T06:17:26.742Z,1020.91
2019-05-30T06:18:26.712Z,1020.90
2019-05-30T06:19:27.481Z,1020.97
2019-05-30T06:20:27.399Z,1020.96
2019-05-30T06:21:27.540Z,1020.91
2019-05-30T06:22:27.617Z,1020.98
2019-05-30T06:23:27.797Z,1020.96
2019-05-30T06:24:27.920Z,1020.96
2019-05-30T06:25:30.415Z,1020.92
2019-05-30T06:26:28.017Z,1020.96
2019-05-30T06:27:26.640Z,1020.92
2019-05-30T06:28:26.624Z,1020.89
2019-05-30T06:29:26.681Z,1020.91
2019-05-30T06:30:26.617Z,1020.89
2019-05-30T06:31:26.675Z,1020.89
2019-05-30T06:32:26.802Z,1020.91
2019-05-30T06:33:27.172Z,1020.95
2019-05-30T06:34:38.110Z,1020.88
2019-05-30T06:35:27.594Z,1020.86
2019-05-30T06:36:27.262Z,1020.84
2019-05-30T06:37:27.306Z,1020.87
2019-05-30T06:38:27.389Z,1020.86
2019-05-30T06:39:27.597Z,1020.87
2019-05-30T06:40:30.384Z,1020.89
2019-05-30T06:41:27.760Z,1020.86
2019-05-30T06:42:26.402Z,1020.91
2019-05-30T06:43:26.396Z,1020.88
2019-05-30T06:44:26.439Z,1020.82
2019-05-30T06:45:26.856Z,1020.85
2019-05-30T06:46:26.360Z,1020.84
2019-05-30T06:47:26.383Z,1020.78
2019-05-30T06:48:26.884Z,1020.84
2019-05-30T06:49:26.755Z,1020.85
2019-05-30T06:50:26.849Z,1020.80
2019-05-30T06:51:26.947Z,1020.82
2019-05-30T06:52:27.075Z,1020.80
2019-05-30T06:53:27.262Z,1020.84
2019-05-30T06:54:27.732Z,1020.87
2019-05-30T06:55:27.299Z,1020.86
2019-05-30T06:56:27.395Z,1020.85
2019-05-30T06:57:27.246Z,1020.84
2019-05-30T06:58:41.567Z,1020.87
2019-05-30T06:59:27.672Z,1020.91
2019-05-30T07:00:26.555Z,1020.87
2019-05-30T07:01:26.207Z,1020.85
2019-05-30T07:02:26.398Z,1020.85
2019-05-30T07:03:26.427Z,1020.81
2019-05-30T07:04:27.838Z,1020.80
2019-05-30T07:05:27.883Z,1020.86
2019-05-30T07:06:27.530Z,1020.84
2019-05-30T07:07:27.045Z,1020.80
2019-05-30T07:08:26.739Z,1020.80
2019-05-30T07:09:26.778Z,1020.77
2019-05-30T07:10:26.786Z,1020.78
2019-05-30T07:11:26.781Z,1020.75
2019-05-30T07:12:27.482Z,1020.77
2019-05-30T07:13:27.273Z,1020.77
2019-05-30T07:14:27.181Z,1020.75
2019-05-30T07:15:27.153Z,1020.81
2019-05-30T07:16:27.260Z,1020.74
2019-05-30T07:17:27.103Z,1020.69
2019-05-30T07:18:26.019Z,1020.75
2019-05-30T07:19:26.012Z,1020.71
2019-05-30T07:20:26.011Z,1020.70
2019-05-30T07:21:25.990Z,1020.73
2019-05-30T07:22:25.977Z,1020.76
2019-05-30T07:23:25.965Z,1020.68
2019-05-30T07:24:25.961Z,1020.76
2019-05-30T07:25:25.970Z,1020.64
2019-05-30T07:26:25.946Z,1020.68
2019-05-30T07:27:26.189Z,1020.71
2019-05-30T07:28:25.930Z,1020.64
2019-05-30T07:29:25.905Z,1020.66
2019-05-30T07:30:25.952Z,1020.62
2019-05-30T07:31:26.081Z,1020.65
2019-05-30T07:32:25.900Z,1020.63
2019-05-30T07:33:26.056Z,1020.68
2019-05-30T07:34:25.982Z,1020.67
2019-05-30T07:35:26.011Z,1020.63
2019-05-30T07:36:26.107Z,1020.61
2019-05-30T07:37:26.243Z,1020.65
2019-05-30T07:38:26.349Z,1020.63
2019-05-30T07:39:27.356Z,1020.62
2019-05-30T07:40:26.594Z,1020.64
2019-05-30T07:41:26.801Z,1020.64
2019-05-30T07:42:26.534Z,1020.65
2019-05-30T07:43:27.964Z,1020.65
2019-05-30T07:44:26.657Z,1020.68
2019-05-30T07:45:26.788Z,1020.59
2019-05-30T07:46:26.773Z,1020.60
2019-05-30T07:47:26.046Z,1020.60
2019-05-30T07:48:26.021Z,1020.66
2019-05-30T07:49:26.261Z,1020.58
2019-05-30T07:50:26.272Z,1020.58
2019-05-30T07:51:26.362Z,1020.58
2019-05-30T07:52:26.457Z,1020.59
2019-05-30T07:53:26.638Z,1020.58
2019-05-30T07:54:26.849Z,1020.59
2019-05-30T07:55:26.882Z,1020.60
2019-05-30T07:56:26.881Z,1020.54
2019-05-30T07:57:26.101Z,1020.52
2019-05-30T07:58:25.598Z,1020.54
2019-05-30T07:59:26.368Z,1020.63
2019-05-30T08:00:25.577Z,1020.57
2019-05-30T08:01:26.320Z,1020.54
2019-05-30T08:02:25.551Z,1020.52
2019-05-30T08:03:26.451Z,1020.53
2019-05-30T08:04:25.534Z,1020.49
2019-05-30T08:05:26.635Z,1020.55
2019-05-30T08:06:25.526Z,1020.51
2019-05-30T08:07:26.562Z,1020.55
2019-05-30T08:08:25.495Z,1020.48
2019-05-30T08:09:26.709Z,1020.49
2019-05-30T08:10:25.469Z,1020.49
2019-05-30T08:11:26.690Z,1020.48
2019-05-30T08:12:25.456Z,1020.50
2019-05-30T08:13:25.435Z,1020.46
2019-05-30T08:14:25.445Z,1020.44
2019-05-30T08:15:25.421Z,1020.40
2019-05-30T08:16:25.424Z,1020.41
2019-05-30T08:17:25.394Z,1020.42
2019-05-30T08:18:25.383Z,1020.39
2019-05-30T08:19:25.431Z,1020.40
2019-05-30T08:20:25.365Z,1020.39
2019-05-30T08:21:25.381Z,1020.38
2019-05-30T08:22:25.347Z,1020.35
2019-05-30T08:23:25.333Z,1020.41
2019-05-30T08:24:25.358Z,1020.37
2019-05-30T08:25:25.313Z,1020.40
2019-05-30T08:26:25.325Z,1020.43
2019-05-30T08:27:25.288Z,1020.38
2019-05-30T08:28:25.281Z,1020.41
2019-05-30T08:29:25.266Z,1020.39
2019-05-30T08:30:25.253Z,1020.34
2019-05-30T08:31:25.261Z,1020.39
2019-05-30T08:32:25.233Z,1020.37
2019-05-30T08:33:25.226Z,1020.43
2019-05-30T08:34:25.214Z,1020.36
2019-05-30T08:35:39.261Z,1020.29
2019-05-30T08:36:26.241Z,1020.25
2019-05-30T08:37:25.182Z,1020.25
2019-05-30T08:38:25.172Z,1020.30
2019-05-30T08:39:25.165Z,1020.21
2019-05-30T08:40:25.152Z,1020.25
2019-05-30T08:41:25.169Z,1020.21
2019-05-30T08:42:27.882Z,1020.21
2019-05-30T08:43:25.117Z,1020.25
2019-05-30T08:44:25.111Z,1020.25
2019-05-30T08:45:25.096Z,1020.25
2019-05-30T08:46:25.121Z,1020.22
2019-05-30T08:47:25.075Z,1020.20
2019-05-30T08:48:25.068Z,1020.25
2019-05-30T08:49:25.058Z,1020.19
2019-05-30T08:50:25.049Z,1020.25
2019-05-30T08:51:25.040Z,1020.18
2019-05-30T08:52:25.041Z,1020.24
2019-05-30T08:53:25.023Z,1020.21
2019-05-30T08:54:25.008Z,1020.20
2019-05-30T08:55:24.991Z,1020.21
2019-05-30T08:56:28.334Z,1020.12
2019-05-30T08:57:25.008Z,1020.15
2019-05-30T08:58:24.964Z,1020.16
2019-05-30T08:59:24.955Z,1020.08
2019-05-30T09:00:24.942Z,1020.10
2019-05-30T09:01:24.938Z,1020.12
2019-05-30T09:02:24.931Z,1020.14
2019-05-30T09:03:24.917Z,1020.16
2019-05-30T09:04:24.898Z,1020.14
2019-05-30T09:05:24.888Z,1020.16
2019-05-30T09:06:24.886Z,1020.10
2019-05-30T09:07:24.906Z,1020.03
2019-05-30T09:08:24.860Z,1020.09
2019-05-30T09:09:24.849Z,1020.09
2019-05-30T09:10:24.833Z,1020.03
2019-05-30T09:11:24.827Z,1020.06
2019-05-30T09:12:24.837Z,1020.01
2019-05-30T09:13:24.806Z,1020.00
2019-05-30T09:14:24.793Z,1019.91
2019-05-30T09:15:24.790Z,1019.98
2019-05-30T09:16:24.783Z,1019.94
2019-05-30T09:17:24.799Z,1019.91
2019-05-30T09:18:24.755Z,1019.88
2019-05-30T09:19:24.749Z,1019.89
2019-05-30T09:20:24.768Z,1019.87
2019-05-30T09:21:24.729Z,1019.90
2019-05-30T09:22:24.729Z,1019.89
2019-05-30T09:23:24.715Z,1019.85
2019-05-30T09:24:24.710Z,1019.88
2019-05-30T09:25:24.683Z,1019.95
2019-05-30T09:26:24.688Z,1019.90
2019-05-30T09:27:24.678Z,1019.83
2019-05-30T09:28:24.656Z,1019.83
2019-05-30T09:29:24.650Z,1019.80
2019-05-30T09:30:24.633Z,1019.81
2019-05-30T09:31:24.630Z,1019.88
2019-05-30T09:32:24.631Z,1019.88
2019-05-30T09:33:24.596Z,1019.90
2019-05-30T09:34:24.590Z,1019.90
2019-05-30T09:35:24.585Z,1019.93
2019-05-30T09:36:24.574Z,1019.84
2019-05-30T09:37:24.595Z,1019.82
2019-05-30T09:38:24.551Z,1019.76
2019-05-30T09:39:24.539Z,1019.78
2019-05-30T09:40:24.529Z,1019.71
2019-05-30T09:41:24.520Z,1019.72
2019-05-30T09:42:24.523Z,1019.70
2019-05-30T09:43:24.508Z,1019.74
2019-05-30T09:44:24.496Z,1019.68
2019-05-30T09:45:24.484Z,1019.68
2019-05-30T09:46:24.472Z,1019.71
2019-05-30T09:47:24.469Z,1019.66
2019-05-30T09:48:24.448Z,1019.65
2019-05-30T09:49:24.435Z,1019.64
2019-05-30T09:50:24.425Z,1019.64
2019-05-30T09:51:24.429Z,1019.62
2019-05-30T09:52:24.426Z,1019.66
2019-05-30T09:53:24.390Z,1019.71
2019-05-30T09:54:24.394Z,1019.69
2019-05-30T09:55:24.372Z,1019.76
2019-05-30T09:56:24.371Z,1019.71
2019-05-30T09:57:24.352Z,1019.70
2019-05-30T09:58:24.363Z,1019.73
2019-05-30T09:59:24.354Z,1019.72
2019-05-30T10:00:24.328Z,1019.72
2019-05-30T10:01:24.310Z,1019.72
2019-05-30T10:02:24.309Z,1019.69
2019-05-30T10:03:24.308Z,1019.67
2019-05-30T10:04:24.284Z,1019.55
2019-05-30T10:05:24.997Z,1019.59
2019-05-30T10:06:29.446Z,1019.57
2019-05-30T10:07:25.250Z,1019.54
2019-05-30T10:08:24.258Z,1019.55
2019-05-30T10:09:24.229Z,1019.54
2019-05-30T10:10:24.243Z,1019.59
2019-05-30T10:11:24.293Z,1019.63
2019-05-30T10:12:24.206Z,1019.64
2019-05-30T10:13:24.208Z,1019.59
2019-05-30T10:14:24.180Z,1019.64
2019-05-30T10:15:24.183Z,1019.55
2019-05-30T10:16:24.159Z,1019.54
2019-05-30T10:17:24.147Z,1019.54
2019-05-30T10:18:24.150Z,1019.48
2019-05-30T10:19:24.163Z,1019.45
2019-05-30T10:20:24.231Z,1019.50
2019-05-30T10:21:24.107Z,1019.49
2019-05-30T10:22:24.104Z,1019.43
2019-05-30T10:23:24.108Z,1019.45
2019-05-30T10:24:24.074Z,1019.45
2019-05-30T10:25:24.243Z,1019.42
2019-05-30T10:26:24.063Z,1019.42
2019-05-30T10:27:24.048Z,1019.42
2019-05-30T10:28:24.049Z,1019.43
2019-05-30T10:29:24.024Z,1019.44
2019-05-30T10:30:24.012Z,1019.38
2019-05-30T10:31:24.004Z,1019.35
2019-05-30T10:32:23.992Z,1019.31
2019-05-30T10:33:24.208Z,1019.30
2019-05-30T10:34:23.981Z,1019.26
2019-05-30T10:35:23.967Z,1019.29
2019-05-30T10:36:23.953Z,1019.45
2019-05-30T10:37:23.940Z,1019.32
2019-05-30T10:38:23.940Z,1019.35
2019-05-30T10:39:23.921Z,1019.21
2019-05-30T10:40:23.909Z,1019.21
2019-05-30T10:41:23.905Z,1019.25
2019-05-30T10:42:23.891Z,1019.25
2019-05-30T10:43:23.894Z,1019.20
2019-05-30T10:44:23.869Z,1019.22
2019-05-30T10:45:23.873Z,1019.23
2019-05-30T10:46:23.855Z,1019.34
2019-05-30T10:47:23.841Z,1019.24
2019-05-30T10:48:23.848Z,1019.24
2019-05-30T10:49:34.134Z,1019.19
2019-05-30T10:50:24.804Z,1019.22
2019-05-30T10:51:23.799Z,1019.17
2019-05-30T10:52:23.787Z,1019.15
2019-05-30T10:53:23.811Z,1019.08
2019-05-30T10:54:23.773Z,1019.09
2019-05-30T10:55:23.753Z,1019.03
2019-05-30T10:56:24.493Z,1018.98
2019-05-30T10:57:23.735Z,1019.03
2019-05-30T10:58:23.744Z,1019.00
2019-05-30T10:59:23.758Z,1019.04
2019-05-30T11:00:23.706Z,1018.99
2019-05-30T11:01:23.695Z,1018.98
2019-05-30T11:02:23.694Z,1019.01
2019-05-30T11:03:23.685Z,1019.01
2019-05-30T11:04:23.659Z,1019.05
2019-05-30T11:05:23.655Z,1018.98
2019-05-30T11:06:23.654Z,1018.93
2019-05-30T11:07:23.713Z,1018.96
2019-05-30T11:08:24.063Z,1019.07
2019-05-30T11:09:23.614Z,1018.93
2019-05-30T11:10:23.610Z,1018.96
2019-05-30T11:11:23.596Z,1018.85
2019-05-30T11:12:23.579Z,1018.86
2019-05-30T11:13:23.594Z,1018.80
2019-05-30T11:14:23.572Z,1018.70
2019-05-30T11:15:23.566Z,1018.81
2019-05-30T11:16:23.543Z,1018.80
2019-05-30T11:17:23.589Z,1018.81
2019-05-30T11:18:23.539Z,1018.77
2019-05-30T11:19:23.579Z,1018.79
2019-05-30T11:20:23.507Z,1018.77
2019-05-30T11:21:23.546Z,1018.80
2019-05-30T11:22:23.514Z,1018.73
2019-05-30T11:23:23.479Z,1018.70
2019-05-30T11:24:23.514Z,1018.67
2019-05-30T11:25:23.491Z,1018.65
2019-05-30T11:26:23.481Z,1018.58
2019-05-30T11:27:23.441Z,1018.75
2019-05-30T11:28:23.425Z,1018.69
2019-05-30T11:29:23.431Z,1018.70
2019-05-30T11:30:23.405Z,1018.66
2019-05-30T11:31:23.390Z,1018.61
2019-05-30T11:32:23.380Z,1018.64
2019-05-30T11:33:23.374Z,1018.65
2019-05-30T11:34:24.033Z,1018.65
2019-05-30T11:35:23.351Z,1018.70
2019-05-30T11:36:23.340Z,1018.63
2019-05-30T11:37:23.326Z,1018.54
2019-05-30T11:38:23.325Z,1018.54
2019-05-30T11:39:23.353Z,1018.48
2019-05-30T11:40:23.344Z,1018.52
2019-05-30T11:41:23.294Z,1018.47
2019-05-30T11:42:23.287Z,1018.49
2019-05-30T11:43:23.266Z,1018.40
2019-05-30T11:44:23.257Z,1018.55
2019-05-30T11:45:23.262Z,1018.52
2019-05-30T11:46:23.249Z,1018.48
2019-05-30T11:47:23.224Z,1018.46
2019-05-30T11:48:23.214Z,1018.54
2019-05-30T11:49:23.231Z,1018.40
2019-05-30T11:50:23.217Z,1018.43
2019-05-30T11:51:23.186Z,1018.46
2019-05-30T11:52:23.175Z,1018.44
2019-05-30T11:53:23.162Z,1018.38
2019-05-30T11:54:23.156Z,1018.44
2019-05-30T11:55:23.160Z,1018.46
2019-05-30T11:56:23.127Z,1018.40
2019-05-30T11:57:23.129Z,1018.37
2019-05-30T11:58:23.109Z,1018.35
2019-05-30T11:59:23.097Z,1018.32
2019-05-30T12:00:23.101Z,1018.31
2019-05-30T12:01:23.080Z,1018.29
2019-05-30T12:02:23.069Z,1018.34
2019-05-30T12:03:23.069Z,1018.41
2019-05-30T12:04:23.043Z,1018.36
2019-05-30T12:05:23.078Z,1018.35